Time;durP1;ratioP1;P1;durP2;ratioP2;P2;SDS_P1;SDS_P2;PMS_P1;PMS_P2;Temp;Humidity;BMP_temperature;BMP_pressure;BME280_temperature;BME280_humidity;BME280_pressure;Samples;Min_cycle;Max_cycle;Signal;HPM_P1;HPM_P2
2023/09/13 16:56:37;;;;;;;12.88;11.70;;;;;;;;;;6355334;22;20093;-88
2023/09/13 16:59:03;;;;;;;13.85;12.55;;;;;;;;;;6371380;22;20038;-88
2023/09/13 17:01:29;;;;;;;12.85;11.65;;;;;;;;;;6371613;22;20013;-89
2023/09/13 17:03:54;;;;;;;13.10;11.80;;;;;;;;;;6372710;22;20002;-88
2023/09/13 17:06:20;;;;;;;13.20;12.00;;;;;;;;;;6319193;22;20007;-88
2023/09/13 17:08:45;;;;;;;12.57;11.55;;;;;;;;;;6313007;22;20003;-88
2023/09/13 17:11:15;;;;;;;12.18;11.02;;;;;;;;;;6340418;22;20090;-84
2023/09/13 17:13:41;;;;;;;12.52;11.27;;;;;;;;;;6341436;22;20003;-86
2023/09/13 17:16:07;;;;;;;12.93;11.73;;;;;;;;;;6341021;22;20352;-88
2023/09/13 17:18:33;;;;;;;12.75;11.45;;;;;;;;;;6340821;22;20003;-87
2023/09/13 17:20:58;;;;;;;13.02;11.73;;;;;;;;;;6313371;22;20014;-89
2023/09/13 17:23:23;;;;;;;12.27;11.20;;;;;;;;;;6341064;22;20330;-89
2023/09/13 17:25:51;;;;;;;13.05;11.75;;;;;;;;;;6312532;22;20083;-87
2023/09/13 17:28:20;;;;;;;13.07;11.57;;;;;;;;;;6340853;22;20008;-87
2023/09/13 17:30:46;;;;;;;13.43;12.02;;;;;;;;;;6340438;22;20013;-87
2023/09/13 17:33:12;;;;;;;13.75;11.82;;;;;;;;;;6340630;22;20081;-83
2023/09/13 17:35:38;;;;;;;13.20;11.85;;;;;;;;;;6340626;22;20026;-87
2023/09/13 17:38:03;;;;;;;13.10;11.80;;;;;;;;;;6313945;22;20030;-88
2023/09/13 17:40:30;;;;;;;12.65;11.48;;;;;;;;;;6341149;22;20344;-92
2023/09/13 17:42:56;;;;;;;13.05;11.95;;;;;;;;;;6312901;22;20081;-84
2023/09/13 17:45:21;;;;;;;13.55;12.23;;;;;;;;;;6313966;22;20026;-90
2023/09/13 17:47:47;;;;;;;12.75;11.55;;;;;;;;;;6314062;22;19999;-93
2023/09/13 17:50:13;;;;;;;14.13;12.82;;;;;;;;;;6341304;22;20003;-93
2023/09/13 17:52:38;;;;;;;15.55;13.80;;;;;;;;;;6313607;22;20035;-89
2023/09/13 17:55:05;;;;;;;12.90;11.70;;;;;;;;;;6313654;22;19999;-91
2023/09/13 17:57:31;;;;;;;14.00;12.60;;;;;;;;;;6341202;22;20002;-89
2023/09/13 17:59:57;;;;;;;15.15;13.75;;;;;;;;;;6341599;22;20326;-94
2023/09/13 18:02:22;;;;;;;13.32;12.05;;;;;;;;;;6314882;22;19999;-91
2023/09/13 18:04:48;;;;;;;13.27;12.15;;;;;;;;;;6341786;22;20030;-92
2023/09/13 18:07:14;;;;;;;13.15;11.85;;;;;;;;;;6344213;22;20078;-94
2023/09/13 18:09:40;;;;;;;13.95;12.57;;;;;;;;;;6315423;22;20003;-94
2023/09/13 18:12:05;;;;;;;14.40;12.98;;;;;;;;;;6316386;22;20306;-93
2023/09/13 18:14:31;;;;;;;15.05;12.95;;;;;;;;;;6315449;22;20060;-88
2023/09/13 18:16:56;;;;;;;13.25;11.95;;;;;;;;;;6342768;22;20082;-87
2023/09/13 18:19:22;;;;;;;13.60;12.30;;;;;;;;;;6342400;22;20006;-86
2023/09/13 18:21:47;;;;;;;13.48;12.27;;;;;;;;;;6341593;22;20069;-91
2023/09/13 18:24:13;;;;;;;13.25;12.05;;;;;;;;;;6341605;22;20003;-90
2023/09/13 18:26:39;;;;;;;14.02;12.60;;;;;;;;;;6315829;22;20030;-93
2023/09/13 18:29:04;;;;;;;13.43;12.15;;;;;;;;;;6343366;22;20037;-90
2023/09/13 18:31:30;;;;;;;14.57;12.73;;;;;;;;;;6341218;22;20295;-89
2023/09/13 18:33:56;;;;;;;14.20;12.85;;;;;;;;;;6341929;22;20477;-88
2023/09/13 18:36:21;;;;;;;13.15;11.85;;;;;;;;;;6313311;22;20010;-91
2023/09/13 18:38:50;;;;;;;14.65;13.30;;;;;;;;;;6341819;22;20444;-87
2023/09/13 18:41:15;;;;;;;14.07;12.70;;;;;;;;;;6342192;22;20003;-90
2023/09/13 18:43:40;;;;;;;13.55;12.45;;;;;;;;;;6340990;22;20299;-88
2023/09/13 18:46:08;;;;;;;13.60;12.20;;;;;;;;;;6313160;22;20013;-89
2023/09/13 18:48:33;;;;;;;14.07;12.70;;;;;;;;;;6341978;22;20010;-90
2023/09/13 18:51:00;;;;;;;13.65;12.35;;;;;;;;;;6313398;22;20003;-91
2023/09/13 18:53:27;;;;;;;13.85;12.55;;;;;;;;;;6316513;22;20002;-94
2023/09/13 18:55:54;;;;;;;13.32;12.13;;;;;;;;;;6350957;22;20006;-89
2023/09/13 18:58:21;;;;;;;14.18;12.77;;;;;;;;;;6315784;22;20025;-91
2023/09/13 19:00:49;;;;;;;14.68;13.05;;;;;;;;;;6315761;22;20078;-94
2023/09/13 19:03:15;;;;;;;14.13;12.82;;;;;;;;;;6316129;22;20083;-93
2023/09/13 19:05:40;;;;;;;14.65;12.55;;;;;;;;;;6314777;22;19991;-93
2023/09/13 19:08:07;;;;;;;14.02;12.73;;;;;;;;;;6315406;22;20090;-92
2023/09/13 19:10:33;;;;;;;14.77;13.50;;;;;;;;;;6350551;22;20007;-89
2023/09/13 19:12:58;;;;;;;14.35;13.07;;;;;;;;;;6317386;22;20052;-89
2023/09/13 19:15:24;;;;;;;14.50;13.02;;;;;;;;;;6349780;22;20003;-90
2023/09/13 19:17:51;;;;;;;13.35;12.15;;;;;;;;;;6348076;22;19993;-92
2023/09/13 19:20:17;;;;;;;13.15;11.77;;;;;;;;;;6316877;22;20006;-96
2023/09/13 19:22:42;;;;;;;14.65;13.35;;;;;;;;;;6314224;22;20393;-89
2023/09/13 19:25:08;;;;;;;15.05;13.65;;;;;;;;;;6313410;22;20014;-90
2023/09/13 19:27:34;;;;;;;15.57;14.05;;;;;;;;;;6314142;22;19998;-93
2023/09/13 19:29:59;;;;;;;14.77;13.43;;;;;;;;;;6313491;22;20067;-92
2023/09/13 19:32:25;;;;;;;14.35;13.05;;;;;;;;;;6314358;22;20427;-95
2023/09/13 19:34:50;;;;;;;15.18;13.52;;;;;;;;;;6314716;22;20010;-94
2023/09/13 19:37:16;;;;;;;14.70;13.40;;;;;;;;;;6341903;22;20002;-93
2023/09/13 19:39:42;;;;;;;14.48;13.07;;;;;;;;;;6313736;22;20008;-95
2023/09/13 19:42:08;;;;;;;14.63;12.95;;;;;;;;;;6315600;22;20003;-95
2023/09/13 19:44:34;;;;;;;14.20;12.90;;;;;;;;;;6315576;22;20007;-90
2023/09/13 19:47:03;;;;;;;14.95;13.50;;;;;;;;;;6313794;22;20014;-91
2023/09/13 19:49:31;;;;;;;16.02;13.68;;;;;;;;;;6313762;22;20010;-93
2023/09/13 19:51:57;;;;;;;15.73;14.23;;;;;;;;;;6314073;22;20034;-90
2023/09/13 19:54:22;;;;;;;16.15;14.57;;;;;;;;;;6314597;22;20007;-90
2023/09/13 19:56:48;;;;;;;15.38;13.98;;;;;;;;;;6343087;22;20395;-93
2023/09/13 19:59:14;;;;;;;15.38;13.77;;;;;;;;;;6316367;22;19999;-88
2023/09/13 20:01:40;;;;;;;15.15;13.57;;;;;;;;;;6317266;22;20093;-88
2023/09/13 20:04:07;;;;;;;14.45;12.93;;;;;;;;;;6332678;22;20014;-87
2023/09/13 20:06:35;;;;;;;13.70;12.25;;;;;;;;;;6296458;22;20090;-91
2023/09/13 20:09:02;;;;;;;14.88;13.30;;;;;;;;;;6295184;22;19999;-92
2023/09/13 20:11:28;;;;;;;16.88;12.82;;;;;;;;;;6319145;22;20315;-95
2023/09/13 20:13:54;;;;;;;14.23;12.93;;;;;;;;;;6321638;22;20030;-91
2023/09/13 20:16:19;;;;;;;14.27;12.95;;;;;;;;;;6322168;22;20326;-95
2023/09/13 20:18:46;;;;;;;15.02;13.52;;;;;;;;;;6317571;22;20003;-90
2023/09/13 20:21:12;;;;;;;15.18;13.70;;;;;;;;;;6316811;22;20013;-93
2023/09/13 20:23:37;;;;;;;15.23;13.52;;;;;;;;;;6316599;22;20003;-94
2023/09/13 20:26:03;;;;;;;15.50;13.68;;;;;;;;;;6316102;22;20002;-93
2023/09/13 20:28:29;;;;;;;14.40;13.00;;;;;;;;;;6316765;22;20007;-95
2023/09/13 20:30:55;;;;;;;14.75;13.45;;;;;;;;;;6345194;22;20009;-95
2023/09/13 20:33:21;;;;;;;15.75;13.23;;;;;;;;;;6316715;22;20007;-88
2023/09/13 20:35:47;;;;;;;15.98;14.38;;;;;;;;;;6344581;22;20010;-96
2023/09/13 20:38:14;;;;;;;14.90;13.40;;;;;;;;;;6320339;22;20061;-96
2023/09/13 20:40:40;;;;;;;14.98;13.38;;;;;;;;;;6342640;22;20014;-96
2023/09/13 20:43:06;;;;;;;14.80;13.15;;;;;;;;;;6314486;22;20003;-96
2023/09/13 20:45:31;;;;;;;15.02;13.60;;;;;;;;;;6318465;22;20057;-93
2023/09/13 20:47:58;;;;;;;14.98;13.55;;;;;;;;;;6320237;22;20085;-95
2023/09/13 20:50:23;;;;;;;15.80;14.25;;;;;;;;;;6290018;22;20010;-92
2023/09/13 20:52:49;;;;;;;15.65;14.15;;;;;;;;;;6314862;22;20007;-96
2023/09/13 20:55:14;;;;;;;15.30;13.80;;;;;;;;;;6315373;22;20011;-91
2023/09/13 20:57:40;;;;;;;15.18;13.85;;;;;;;;;;6342259;22;20002;-95
2023/09/13 21:00:06;;;;;;;14.65;13.25;;;;;;;;;;6342627;22;20007;-90
2023/09/13 21:02:33;;;;;;;16.00;14.32;;;;;;;;;;6314665;22;20007;-92
2023/09/13 21:04:59;;;;;;;15.75;14.35;;;;;;;;;;6342129;22;20003;-92
2023/09/13 21:07:25;;;;;;;14.85;13.40;;;;;;;;;;6314847;22;20003;-96
2023/09/13 21:09:50;;;;;;;13.93;12.75;;;;;;;;;;6314678;22;20003;-94
2023/09/13 21:12:16;;;;;;;14.77;13.38;;;;;;;;;;6341798;22;20010;-92
2023/09/13 21:14:41;;;;;;;16.08;14.57;;;;;;;;;;6342726;22;20002;-92
2023/09/13 21:17:07;;;;;;;16.35;14.73;;;;;;;;;;6314406;22;20333;-91
2023/09/13 21:19:32;;;;;;;15.38;13.88;;;;;;;;;;6341757;22;20006;-94
2023/09/13 21:21:58;;;;;;;14.27;12.68;;;;;;;;;;6313967;22;20086;-95
2023/09/13 21:24:23;;;;;;;13.77;12.38;;;;;;;;;;6314664;22;20010;-96
2023/09/13 21:26:53;;;;;;;16.15;14.65;;;;;;;;;;6314797;22;20003;-96
2023/09/13 21:29:19;;;;;;;16.00;14.57;;;;;;;;;;6314639;22;20014;-95
2023/09/13 21:31:46;;;;;;;16.15;14.55;;;;;;;;;;6314946;22;20014;-96
2023/09/13 21:34:11;;;;;;;15.85;14.20;;;;;;;;;;6315402;22;20003;-94
2023/09/13 21:36:37;;;;;;;15.57;14.18;;;;;;;;;;6342612;22;20326;-92
2023/09/13 21:39:03;;;;;;;17.27;14.65;;;;;;;;;;6342313;22;20006;-95
2023/09/13 21:41:29;;;;;;;16.02;14.32;;;;;;;;;;6314813;22;20006;-94
2023/09/13 21:43:54;;;;;;;17.30;15.48;;;;;;;;;;6343159;22;20522;-95
2023/09/13 21:46:20;;;;;;;16.13;14.70;;;;;;;;;;6314758;22;20376;-96
2023/09/13 21:48:45;;;;;;;16.10;14.70;;;;;;;;;;6315697;22;20007;-95
2023/09/13 21:51:11;;;;;;;16.63;15.05;;;;;;;;;;6315292;22;20303;-94
2023/09/13 21:53:36;;;;;;;16.25;14.65;;;;;;;;;;6318048;22;20414;-94
2023/09/13 21:56:03;;;;;;;17.42;15.77;;;;;;;;;;6344963;22;20386;-95
2023/09/13 21:58:30;;;;;;;17.25;15.43;;;;;;;;;;6341841;22;20009;-94
2023/09/13 22:00:58;;;;;;;17.45;15.85;;;;;;;;;;6313654;22;20299;-94
2023/09/13 22:03:24;;;;;;;16.73;15.23;;;;;;;;;;6314145;22;20014;-94
2023/09/13 22:05:50;;;;;;;16.83;15.23;;;;;;;;;;6341506;22;20022;-92
2023/09/13 22:08:17;;;;;;;16.52;14.85;;;;;;;;;;6314516;22;20418;-93
2023/09/13 22:10:43;;;;;;;17.08;15.38;;;;;;;;;;6342116;22;20085;-93
2023/09/13 22:13:09;;;;;;;17.20;15.48;;;;;;;;;;6341693;22;20003;-93
2023/09/13 22:15:34;;;;;;;17.15;15.55;;;;;;;;;;6314129;22;20013;-94
2023/09/13 22:18:00;;;;;;;16.65;15.05;;;;;;;;;;6314827;22;20040;-92
2023/09/13 22:20:25;;;;;;;16.67;14.90;;;;;;;;;;6315463;22;20338;-93
2023/09/13 22:22:51;;;;;;;17.65;16.05;;;;;;;;;;6345840;22;20537;-94
2023/09/13 22:25:18;;;;;;;17.23;15.52;;;;;;;;;;6342911;22;20465;-94
